sensor_id;sensor_type;location;lat;lon;timestamp;pressure;altitude;pressure_sealevel;temperature;humidity
37450;BME280;23309;52.582;13.406;2022-09-16T00:00:43;99960.59;;;20.77;43.28
37450;BME280;23309;52.582;13.406;2022-09-16T00:03:10;99963.50;;;20.76;43.59
37450;BME280;23309;52.582;13.406;2022-09-16T00:05:40;99967.88;;;20.77;43.04
37450;BME280;23309;52.582;13.406;2022-09-16T00:08:06;99969.16;;;20.74;43.35
37450;BME280;23309;52.582;13.406;2022-09-16T00:10:33;99968.31;;;20.74;43.32
37450;BME280;23309;52.582;13.406;2022-09-16T00:12:59;99971.47;;;20.71;42.97
37450;BME280;23309;52.582;13.406;2022-09-16T00:15:28;99972.28;;;20.71;42.71
37450;BME280;23309;52.582;13.406;2022-09-16T00:17:54;99974.63;;;20.68;42.86
37450;BME280;23309;52.582;13.406;2022-09-16T00:20:21;99963.38;;;20.64;42.65
37450;BME280;23309;52.582;13.406;2022-09-16T00:22:47;99964.44;;;20.63;42.92
37450;BME280;23309;52.582;13.406;2022-09-16T00:25:13;99968.63;;;20.59;42.75
37450;BME280;23309;52.582;13.406;2022-09-16T00:27:39;99970.75;;;20.51;42.83
37450;BME280;23309;52.582;13.406;2022-09-16T00:30:07;99966.75;;;20.53;42.81
37450;BME280;23309;52.582;13.406;2022-09-16T00:32:36;99963.84;;;20.55;43.04
37450;BME280;23309;52.582;13.406;2022-09-16T00:35:03;99967.00;;;20.52;42.80
37450;BME280;23309;52.582;13.406;2022-09-16T00:37:31;99970.34;;;20.47;42.59
37450;BME280;23309;52.582;13.406;2022-09-16T00:39:58;99968.28;;;20.49;42.96
37450;BME280;23309;52.582;13.406;2022-09-16T00:42:24;99974.72;;;20.48;42.48
37450;BME280;23309;52.582;13.406;2022-09-16T00:44:54;99978.72;;;20.46;42.76
37450;BME280;23309;52.582;13.406;2022-09-16T00:47:26;99977.66;;;20.47;42.69
37450;BME280;23309;52.582;13.406;2022-09-16T00:50:02;99984.34;;;20.44;42.82
37450;BME280;23309;52.582;13.406;2022-09-16T00:52:30;99970.84;;;20.31;42.86
37450;BME280;23309;52.582;13.406;2022-09-16T00:54:58;99975.03;;;20.34;42.72
37450;BME280;23309;52.582;13.406;2022-09-16T00:57:26;99989.22;;;20.29;42.91
37450;BME280;23309;52.582;13.406;2022-09-16T00:59:54;99974.63;;;20.24;43.23
37450;BME280;23309;52.582;13.406;2022-09-16T01:02:21;99972.59;;;20.19;43.10
37450;BME280;23309;52.582;13.406;2022-09-16T01:04:52;99974.84;;;20.22;43.41
37450;BME280;23309;52.582;13.406;2022-09-16T01:07:32;99980.47;;;20.27;43.08
37450;BME280;23309;52.582;13.406;2022-09-16T01:09:59;99981.97;;;20.17;43.37
37450;BME280;23309;52.582;13.406;2022-09-16T01:12:27;99978.03;;;20.06;43.54
37450;BME280;23309;52.582;13.406;2022-09-16T01:14:56;99970.09;;;20.05;43.64
37450;BME280;23309;52.582;13.406;2022-09-16T01:17:58;99970.28;;;20.23;43.10
37450;BME280;23309;52.582;13.406;2022-09-16T01:20:53;99966.34;;;20.12;43.36
37450;BME280;23309;52.582;13.406;2022-09-16T01:27:17;99978.03;;;20.06;43.61
37450;BME280;23309;52.582;13.406;2022-09-16T01:33:03;99978.72;;;19.89;44.55
37450;BME280;23309;52.582;13.406;2022-09-16T01:36:03;99962.00;;;19.92;44.50
37450;BME280;23309;52.582;13.406;2022-09-16T01:38:57;99976.44;;;19.86;44.62
37450;BME280;23309;52.582;13.406;2022-09-16T01:41:35;99971.66;;;19.75;44.69
37450;BME280;23309;52.582;13.406;2022-09-16T01:44:18;99984.97;;;19.89;45.02
37450;BME280;23309;52.582;13.406;2022-09-16T01:46:49;99983.50;;;19.87;44.90
37450;BME280;23309;52.582;13.406;2022-09-16T01:49:25;99978.06;;;19.93;44.84
37450;BME280;23309;52.582;13.406;2022-09-16T01:52:01;99982.03;;;19.91;44.64
37450;BME280;23309;52.582;13.406;2022-09-16T01:54:34;99981.63;;;19.87;44.92
37450;BME280;23309;52.582;13.406;2022-09-16T01:57:06;99975.38;;;19.87;45.21
37450;BME280;23309;52.582;13.406;2022-09-16T01:59:41;99976.22;;;19.81;45.16
37450;BME280;23309;52.582;13.406;2022-09-16T02:02:15;99977.06;;;19.81;45.49
37450;BME280;23309;52.582;13.406;2022-09-16T02:04:50;99968.13;;;19.68;45.20
37450;BME280;23309;52.582;13.406;2022-09-16T02:07:22;99976.06;;;19.69;45.41
37450;BME280;23309;52.582;13.406;2022-09-16T02:09:54;99987.72;;;19.63;45.80
37450;BME280;23309;52.582;13.406;2022-09-16T02:12:25;99976.06;;;19.63;46.07
37450;BME280;23309;52.582;13.406;2022-09-16T02:14:59;99972.91;;;19.66;45.98
37450;BME280;23309;52.582;13.406;2022-09-16T02:17:31;99970.00;;;19.67;45.62
37450;BME280;23309;52.582;13.406;2022-09-16T02:20:07;99971.88;;;19.73;45.80
37450;BME280;23309;52.582;13.406;2022-09-16T02:22:38;99969.38;;;19.72;45.75
37450;BME280;23309;52.582;13.406;2022-09-16T02:25:07;99968.53;;;19.71;45.72
37450;BME280;23309;52.582;13.406;2022-09-16T02:27:36;99975.41;;;19.67;46.22
37450;BME280;23309;52.582;13.406;2022-09-16T02:30:08;99969.78;;;19.69;45.83
37450;BME280;23309;52.582;13.406;2022-09-16T02:32:39;99974.38;;;19.68;46.19
37450;BME280;23309;52.582;13.406;2022-09-16T02:35:13;99967.28;;;19.74;45.85
37450;BME280;23309;52.582;13.406;2022-09-16T02:37:44;99963.13;;;19.58;45.88
37450;BME280;23309;52.582;13.406;2022-09-16T02:40:17;99960.03;;;19.55;46.20
37450;BME280;23309;52.582;13.406;2022-09-16T02:42:45;99959.38;;;19.59;46.66
37450;BME280;23309;52.582;13.406;2022-09-16T02:45:11;99965.84;;;19.58;46.61
37450;BME280;23309;52.582;13.406;2022-09-16T02:47:45;99959.38;;;19.59;46.43
37450;BME280;23309;52.582;13.406;2022-09-16T02:50:22;99966.50;;;19.60;46.29
37450;BME280;23309;52.582;13.406;2022-09-16T02:52:55;99970.25;;;19.53;46.52
37450;BME280;23309;52.582;13.406;2022-09-16T02:55:33;99965.84;;;19.58;46.80
37450;BME280;23309;52.582;13.406;2022-09-16T02:58:03;99969.00;;;19.49;46.58
37450;BME280;23309;52.582;13.406;2022-09-16T03:00:31;99967.13;;;19.49;46.82
37450;BME280;23309;52.582;13.406;2022-09-16T03:02:58;99971.28;;;19.52;47.11
37450;BME280;23309;52.582;13.406;2022-09-16T03:05:30;99969.63;;;19.51;46.83
37450;BME280;23309;52.582;13.406;2022-09-16T03:07:56;99965.47;;;19.48;47.11
37450;BME280;23309;52.582;13.406;2022-09-16T03:10:27;99973.78;;;19.47;46.92
37450;BME280;23309;52.582;13.406;2022-09-16T03:13:01;99968.16;;;19.48;47.32
37450;BME280;23309;52.582;13.406;2022-09-16T03:15:55;99956.91;;;19.51;47.02
37450;BME280;23309;52.582;13.406;2022-09-16T03:18:44;99956.09;;;19.44;47.14
37450;BME280;23309;52.582;13.406;2022-09-16T03:21:20;99961.09;;;19.41;47.42
37450;BME280;23309;52.582;13.406;2022-09-16T03:23:59;99972.53;;;19.43;47.35
37450;BME280;23309;52.582;13.406;2022-09-16T03:26:37;99969.03;;;19.36;47.39
37450;BME280;23309;52.582;13.406;2022-09-16T03:29:12;99966.72;;;19.33;47.39
37450;BME280;23309;52.582;13.406;2022-09-16T03:31:48;99968.16;;;19.42;47.29
37450;BME280;23309;52.582;13.406;2022-09-16T03:34:22;99978.59;;;19.38;47.59
37450;BME280;23309;52.582;13.406;2022-09-16T03:36:58;99950.28;;;19.28;47.45
37450;BME280;23309;52.582;13.406;2022-09-16T03:39:24;99965.88;;;19.32;47.33
37450;BME280;23309;52.582;13.406;2022-09-16T03:41:51;99969.03;;;19.36;47.37
37450;BME280;23309;52.582;13.406;2022-09-16T03:44:18;99968.38;;;19.34;47.79
37450;BME280;23309;52.582;13.406;2022-09-16T03:46:44;99950.88;;;19.23;47.42
37450;BME280;23309;52.582;13.406;2022-09-16T03:49:10;99961.94;;;19.35;47.61
37450;BME280;23309;52.582;13.406;2022-09-16T03:51:36;99952.56;;;19.37;47.33
37450;BME280;23309;52.582;13.406;2022-09-16T03:54:05;99940.06;;;19.23;47.71
37450;BME280;23309;52.582;13.406;2022-09-16T03:56:31;99958.19;;;19.29;47.63
37450;BME280;23309;52.582;13.406;2022-09-16T03:58:57;99959.25;;;19.28;47.96
37450;BME280;23309;52.582;13.406;2022-09-16T04:01:23;99962.75;;;19.29;47.57
37450;BME280;23309;52.582;13.406;2022-09-16T04:03:49;99956.75;;;19.27;48.01
37450;BME280;23309;52.582;13.406;2022-09-16T04:06:15;99953.59;;;19.23;47.69
37450;BME280;23309;52.582;13.406;2022-09-16T04:08:42;99960.25;;;19.27;47.97
37450;BME280;23309;52.582;13.406;2022-09-16T04:11:10;99947.38;;;19.23;48.10
37450;BME280;23309;52.582;13.406;2022-09-16T04:13:36;99958.81;;;19.25;48.15
37450;BME280;23309;52.582;13.406;2022-09-16T04:16:04;99959.25;;;19.28;47.71
37450;BME280;23309;52.582;13.406;2022-09-16T04:18:31;99965.28;;;19.30;47.51
37450;BME280;23309;52.582;13.406;2022-09-16T04:20:57;99959.66;;;19.25;47.57
37450;BME280;23309;52.582;13.406;2022-09-16T04:23:24;99961.09;;;19.28;47.86
37450;BME280;23309;52.582;13.406;2022-09-16T04:25:54;99964.22;;;19.31;47.46
37450;BME280;23309;52.582;13.406;2022-09-16T04:28:23;99963.41;;;19.31;47.70
37450;BME280;23309;52.582;13.406;2022-09-16T04:30:49;99964.00;;;19.26;47.64
37450;BME280;23309;52.582;13.406;2022-09-16T04:33:16;99965.06;;;19.25;47.47
37450;BME280;23309;52.582;13.406;2022-09-16T04:35:42;99964.00;;;19.20;47.61
37450;BME280;23309;52.582;13.406;2022-09-16T04:38:08;99964.38;;;19.17;47.58
37450;BME280;23309;52.582;13.406;2022-09-16T04:40:34;99961.47;;;19.18;48.01
37450;BME280;23309;52.582;13.406;2022-09-16T04:43:01;99952.53;;;19.18;47.62
37450;BME280;23309;52.582;13.406;2022-09-16T04:45:30;99956.72;;;19.14;47.96
37450;BME280;23309;52.582;13.406;2022-09-16T04:47:56;99956.91;;;19.12;47.61
37450;BME280;23309;52.582;13.406;2022-09-16T04:50:22;99959.63;;;19.06;47.83
37450;BME280;23309;52.582;13.406;2022-09-16T04:52:48;99955.88;;;19.13;47.91
37450;BME280;23309;52.582;13.406;2022-09-16T04:55:15;99957.75;;;19.13;47.89
37450;BME280;23309;52.582;13.406;2022-09-16T04:57:41;99960.88;;;19.16;47.96
37450;BME280;23309;52.582;13.406;2022-09-16T05:00:09;99951.28;;;19.20;47.91
37450;BME280;23309;52.582;13.406;2022-09-16T05:02:38;99957.56;;;19.27;47.38
37450;BME280;23309;52.582;13.406;2022-09-16T05:05:06;99956.28;;;19.36;47.74
37450;BME280;23309;52.582;13.406;2022-09-16T05:07:32;99962.75;;;19.42;47.52
37450;BME280;23309;52.582;13.406;2022-09-16T05:09:58;99949.81;;;19.50;47.08
37450;BME280;23309;52.582;13.406;2022-09-16T05:12:25;99951.91;;;19.55;46.66
37450;BME280;23309;52.582;13.406;2022-09-16T05:14:51;99950.25;;;19.54;46.55
37450;BME280;23309;52.582;13.406;2022-09-16T05:17:17;99951.91;;;19.55;46.69
37450;BME280;23309;52.582;13.406;2022-09-16T05:19:46;99951.28;;;19.53;46.75
37450;BME280;23309;52.582;13.406;2022-09-16T05:22:12;99947.75;;;19.46;46.78
37450;BME280;23309;52.582;13.406;2022-09-16T05:24:38;99949.63;;;19.45;47.13
37450;BME280;23309;52.582;13.406;2022-09-16T05:27:04;99957.53;;;19.47;46.95
37450;BME280;23309;52.582;13.406;2022-09-16T05:29:30;99952.31;;;19.52;46.91
37450;BME280;23309;52.582;13.406;2022-09-16T05:31:56;99952.75;;;19.62;46.54
37450;BME280;23309;52.582;13.406;2022-09-16T05:34:23;99947.91;;;19.70;46.39
37450;BME280;23309;52.582;13.406;2022-09-16T05:36:51;99942.00;;;19.86;46.18
37450;BME280;23309;52.582;13.406;2022-09-16T05:39:18;99943.00;;;20.05;46.40
37450;BME280;23309;52.582;13.406;2022-09-16T05:41:44;99946.72;;;20.17;45.40
37450;BME280;23309;52.582;13.406;2022-09-16T05:44:11;99945.00;;;20.22;45.30
37450;BME280;23309;52.582;13.406;2022-09-16T05:46:37;99954.84;;;20.23;45.44
37450;BME280;23309;52.582;13.406;2022-09-16T05:49:04;99948.97;;;20.26;45.19
37450;BME280;23309;52.582;13.406;2022-09-16T05:51:30;99946.41;;;20.38;45.16
37450;BME280;23309;52.582;13.406;2022-09-16T05:53:59;99952.84;;;20.43;44.97
37450;BME280;23309;52.582;13.406;2022-09-16T05:56:27;99950.31;;;20.48;44.52
37450;BME280;23309;52.582;13.406;2022-09-16T05:58:56;99941.31;;;20.54;44.50
37450;BME280;23309;52.582;13.406;2022-09-16T06:01:24;99944.34;;;20.71;44.41
37450;BME280;23309;52.582;13.406;2022-09-16T06:03:52;99940.03;;;20.88;43.59
37450;BME280;23309;52.582;13.406;2022-09-16T06:06:23;99949.94;;;21.07;43.43
37450;BME280;23309;52.582;13.406;2022-09-16T06:08:50;99940.31;;;21.11;43.29
37450;BME280;23309;52.582;13.406;2022-09-16T06:11:20;99951.91;;;21.42;42.76
37450;BME280;23309;52.582;13.406;2022-09-16T06:13:46;99945.13;;;21.76;42.67
37450;BME280;23309;52.582;13.406;2022-09-16T06:16:16;99949.75;;;21.93;41.22
37450;BME280;23309;52.582;13.406;2022-09-16T06:18:43;99941.66;;;22.05;40.95
37450;BME280;23309;52.582;13.406;2022-09-16T06:21:10;99940.28;;;22.14;40.96
37450;BME280;23309;52.582;13.406;2022-09-16T06:23:38;99946.53;;;22.14;40.27
37450;BME280;23309;52.582;13.406;2022-09-16T06:26:07;99945.41;;;22.04;40.80
37450;BME280;23309;52.582;13.406;2022-09-16T06:28:36;99939.97;;;22.04;40.83
37450;BME280;23309;52.582;13.406;2022-09-16T06:31:05;99944.81;;;22.20;41.11
37450;BME280;23309;52.582;13.406;2022-09-16T06:33:32;99947.63;;;22.43;39.86
37450;BME280;23309;52.582;13.406;2022-09-16T06:36:03;99954.31;;;22.47;40.01
37450;BME280;23309;52.582;13.406;2022-09-16T06:38:29;99948.63;;;22.48;40.18
37450;BME280;23309;52.582;13.406;2022-09-16T06:40:59;99942.81;;;22.45;39.58
37450;BME280;23309;52.582;13.406;2022-09-16T06:43:26;99941.47;;;22.36;39.53
37450;BME280;23309;52.582;13.406;2022-09-16T06:45:58;99945.91;;;22.48;39.39
37450;BME280;23309;52.582;13.406;2022-09-16T06:48:25;99939.97;;;22.51;39.62
37450;BME280;23309;52.582;13.406;2022-09-16T06:50:58;99941.63;;;22.70;38.96
37450;BME280;23309;52.582;13.406;2022-09-16T06:53:24;99943.94;;;22.67;39.17
37450;BME280;23309;52.582;13.406;2022-09-16T06:55:50;99935.69;;;22.73;39.14
37450;BME280;23309;52.582;13.406;2022-09-16T06:58:16;99939.13;;;22.69;39.11
37450;BME280;23309;52.582;13.406;2022-09-16T07:00:42;99940.19;;;22.68;39.14
37450;BME280;23309;52.582;13.406;2022-09-16T07:03:11;99951.78;;;22.75;38.85
37450;BME280;23309;52.582;13.406;2022-09-16T07:05:37;99957.09;;;22.70;38.40
37450;BME280;23309;52.582;13.406;2022-09-16T07:08:03;99951.63;;;22.58;38.70
37450;BME280;23309;52.582;13.406;2022-09-16T07:10:29;99955.28;;;22.52;39.13
37450;BME280;23309;52.582;13.406;2022-09-16T07:12:56;99958.44;;;22.49;38.66
37450;BME280;23309;52.582;13.406;2022-09-16T07:15:22;99946.97;;;22.47;39.27
37450;BME280;23309;52.582;13.406;2022-09-16T07:17:52;99954.16;;;22.71;39.04
37450;BME280;23309;52.582;13.406;2022-09-16T07:20:21;99955.44;;;22.69;38.67
37450;BME280;23309;52.582;13.406;2022-09-16T07:22:47;99951.41;;;22.60;39.11
37450;BME280;23309;52.582;13.406;2022-09-16T07:25:14;99949.06;;;22.75;38.87
37450;BME280;23309;52.582;13.406;2022-09-16T07:27:40;99944.41;;;23.05;38.53
37450;BME280;23309;52.582;13.406;2022-09-16T07:30:08;99949.34;;;23.26;37.62
37450;BME280;23309;52.582;13.406;2022-09-16T07:32:34;99949.22;;;23.55;37.81
37450;BME280;23309;52.582;13.406;2022-09-16T07:35:00;99948.16;;;23.91;37.23
37450;BME280;23309;52.582;13.406;2022-09-16T07:37:29;99953.28;;;24.27;36.45
37450;BME280;23309;52.582;13.406;2022-09-16T07:39:55;99946.63;;;24.62;35.72
37450;BME280;23309;52.582;13.406;2022-09-16T07:42:21;99947.78;;;25.11;33.92
37450;BME280;23309;52.582;13.406;2022-09-16T07:44:47;99945.84;;;25.39;34.28
37450;BME280;23309;52.582;13.406;2022-09-16T07:47:13;99944.16;;;25.55;33.48
37450;BME280;23309;52.582;13.406;2022-09-16T07:49:39;99945.22;;;25.71;33.55
37450;BME280;23309;52.582;13.406;2022-09-16T07:52:05;99953.94;;;25.89;32.85
37450;BME280;23309;52.582;13.406;2022-09-16T07:54:34;99953.84;;;26.01;32.80
37450;BME280;23309;52.582;13.406;2022-09-16T07:57:01;99954.06;;;26.16;32.24
37450;BME280;23309;52.582;13.406;2022-09-16T07:59:27;99954.38;;;26.19;32.05
37450;BME280;23309;52.582;13.406;2022-09-16T08:01:53;99952.00;;;26.06;32.52
37450;BME280;23309;52.582;13.406;2022-09-16T08:04:20;99953.84;;;26.01;32.26
37450;BME280;23309;52.582;13.406;2022-09-16T08:06:47;99959.56;;;25.99;32.50
37450;BME280;23309;52.582;13.406;2022-09-16T08:09:13;99954.53;;;25.91;32.60
37450;BME280;23309;52.582;13.406;2022-09-16T08:11:42;99961.88;;;25.91;32.07
37450;BME280;23309;52.582;13.406;2022-09-16T08:14:08;99961.06;;;25.90;31.59
37450;BME280;23309;52.582;13.406;2022-09-16T08:16:34;99963.50;;;25.70;32.26
37450;BME280;23309;52.582;13.406;2022-09-16T08:19:00;99966.09;;;25.60;32.06
37450;BME280;23309;52.582;13.406;2022-09-16T08:21:28;99961.06;;;25.35;32.20
37450;BME280;23309;52.582;13.406;2022-09-16T08:23:54;99965.50;;;25.08;32.28
37450;BME280;23309;52.582;13.406;2022-09-16T08:26:22;99958.25;;;24.86;33.44
37450;BME280;23309;52.582;13.406;2022-09-16T08:28:51;99956.75;;;24.78;33.41
37450;BME280;23309;52.582;13.406;2022-09-16T08:31:18;99972.59;;;24.76;33.69
37450;BME280;23309;52.582;13.406;2022-09-16T08:33:45;99965.81;;;24.79;34.04
37450;BME280;23309;52.582;13.406;2022-09-16T08:36:14;99951.38;;;24.83;33.67
37450;BME280;23309;52.582;13.406;2022-09-16T08:38:41;99957.94;;;24.82;33.49
37450;BME280;23309;52.582;13.406;2022-09-16T08:41:25;99949.00;;;24.87;33.21
37450;BME280;23309;52.582;13.406;2022-09-16T08:44:07;99956.84;;;24.83;33.76
37450;BME280;23309;52.582;13.406;2022-09-16T08:46:44;99959.03;;;24.81;33.69
37450;BME280;23309;52.582;13.406;2022-09-16T08:49:27;99955.03;;;24.72;33.34
37450;BME280;23309;52.582;13.406;2022-09-16T08:51:57;99960.81;;;24.76;33.08
37450;BME280;23309;52.582;13.406;2022-09-16T08:54:27;99960.56;;;24.77;32.95
37450;BME280;23309;52.582;13.406;2022-09-16T08:57:00;99946.22;;;24.70;33.50
37450;BME280;23309;52.582;13.406;2022-09-16T08:59:35;99954.19;;;24.72;33.51
37450;BME280;23309;52.582;13.406;2022-09-16T09:02:21;99953.41;;;25.04;32.99
37450;BME280;23309;52.582;13.406;2022-09-16T09:04:51;99950.50;;;24.94;32.53
37450;BME280;23309;52.582;13.406;2022-09-16T09:07:28;99958.75;;;25.27;31.92
37450;BME280;23309;52.582;13.406;2022-09-16T09:10:07;99956.16;;;25.21;32.35
37450;BME280;23309;52.582;13.406;2022-09-16T09:12:39;99961.38;;;25.22;32.40
37450;BME280;23309;52.582;13.406;2022-09-16T09:15:35;99958.06;;;25.53;32.07
37450;BME280;23309;52.582;13.406;2022-09-16T09:18:16;99959.06;;;25.47;31.61
37450;BME280;23309;52.582;13.406;2022-09-16T09:20:58;99944.81;;;25.12;30.85
37450;BME280;23309;52.582;13.406;2022-09-16T09:23:43;99942.88;;;25.13;32.17
37450;BME280;23309;52.582;13.406;2022-09-16T09:26:19;99941.41;;;25.22;31.40
37450;BME280;23309;52.582;13.406;2022-09-16T09:29:29;99941.75;;;25.58;30.91
37450;BME280;23309;52.582;13.406;2022-09-16T09:32:17;99937.69;;;25.83;30.65
37450;BME280;23309;52.582;13.406;2022-09-16T09:34:59;99933.25;;;25.77;30.00
37450;BME280;23309;52.582;13.406;2022-09-16T09:37:59;99948.47;;;25.89;30.20
37450;BME280;23309;52.582;13.406;2022-09-16T09:40:34;99935.34;;;26.08;30.41
37450;BME280;23309;52.582;13.406;2022-09-16T09:43:10;99917.81;;;26.30;29.02
37450;BME280;23309;52.582;13.406;2022-09-16T09:45:42;99931.75;;;26.50;28.52
37450;BME280;23309;52.582;13.406;2022-09-16T09:48:17;99934.63;;;26.60;28.23
37450;BME280;23309;52.582;13.406;2022-09-16T09:50:47;99931.41;;;26.47;27.94
37450;BME280;23309;52.582;13.406;2022-09-16T09:53:19;99923.09;;;26.37;27.97
37450;BME280;23309;52.582;13.406;2022-09-16T09:55:49;99917.03;;;26.13;27.97
37450;BME280;23309;52.582;13.406;2022-09-16T09:58:23;99926.13;;;26.40;28.29
37450;BME280;23309;52.582;13.406;2022-09-16T10:00:53;99921.63;;;26.77;27.75
37450;BME280;23309;52.582;13.406;2022-09-16T10:03:23;99910.41;;;27.10;26.45
37450;BME280;23309;52.582;13.406;2022-09-16T10:05:49;99919.63;;;27.26;26.65
37450;BME280;23309;52.582;13.406;2022-09-16T10:08:25;99923.22;;;27.31;26.00
37450;BME280;23309;52.582;13.406;2022-09-16T10:10:55;99921.28;;;27.32;26.06
37450;BME280;23309;52.582;13.406;2022-09-16T10:13:23;99910.94;;;27.39;25.91
37450;BME280;23309;52.582;13.406;2022-09-16T10:15:53;99914.38;;;27.61;26.74
37450;BME280;23309;52.582;13.406;2022-09-16T10:18:29;99921.31;;;27.73;25.63
37450;BME280;23309;52.582;13.406;2022-09-16T10:21:02;99920.63;;;27.51;25.15
37450;BME280;23309;52.582;13.406;2022-09-16T10:23:29;99910.78;;;27.19;25.45
37450;BME280;23309;52.582;13.406;2022-09-16T10:26:17;99907.59;;;27.00;26.07
37450;BME280;23309;52.582;13.406;2022-09-16T10:28:54;99910.03;;;26.70;26.44
37450;BME280;23309;52.582;13.406;2022-09-16T10:31:21;99908.88;;;26.40;26.58
37450;BME280;23309;52.582;13.406;2022-09-16T10:33:51;99910.31;;;26.21;27.09
37450;BME280;23309;52.582;13.406;2022-09-16T10:36:19;99904.44;;;26.12;27.05
37450;BME280;23309;52.582;13.406;2022-09-16T10:38:51;99911.53;;;26.30;26.32
37450;BME280;23309;52.582;13.406;2022-09-16T10:41:23;99908.59;;;26.36;26.04
37450;BME280;23309;52.582;13.406;2022-09-16T10:43:52;99914.81;;;26.32;26.60
37450;BME280;23309;52.582;13.406;2022-09-16T10:46:19;99916.78;;;26.36;26.13
37450;BME280;23309;52.582;13.406;2022-09-16T10:48:49;99903.44;;;26.18;25.89
37450;BME280;23309;52.582;13.406;2022-09-16T10:51:23;99914.41;;;26.45;26.54
37450;BME280;23309;52.582;13.406;2022-09-16T10:53:53;99902.59;;;26.92;25.59
37450;BME280;23309;52.582;13.406;2022-09-16T10:56:22;99902.66;;;27.29;25.08
37450;BME280;23309;52.582;13.406;2022-09-16T10:59:00;99903.91;;;27.53;24.94
37450;BME280;23309;52.582;13.406;2022-09-16T11:01:41;99895.16;;;27.56;24.45
37450;BME280;23309;52.582;13.406;2022-09-16T11:04:30;99904.94;;;27.42;24.59
37450;BME280;23309;52.582;13.406;2022-09-16T11:07:17;99894.50;;;27.44;24.52
37450;BME280;23309;52.582;13.406;2022-09-16T11:09:55;99905.06;;;27.25;25.25
37450;BME280;23309;52.582;13.406;2022-09-16T11:13:08;99905.75;;;27.11;25.61
37450;BME280;23309;52.582;13.406;2022-09-16T11:15:51;99909.19;;;26.96;25.97
37450;BME280;23309;52.582;13.406;2022-09-16T11:18:36;99914.84;;;26.85;25.74
37450;BME280;23309;52.582;13.406;2022-09-16T11:24:54;99899.91;;;27.29;24.78
37450;BME280;23309;52.582;13.406;2022-09-16T11:27:33;99894.78;;;27.84;24.63
37450;BME280;23309;52.582;13.406;2022-09-16T11:30:09;99897.22;;;28.42;23.62
37450;BME280;23309;52.582;13.406;2022-09-16T11:32:57;99884.91;;;28.79;22.56
37450;BME280;23309;52.582;13.406;2022-09-16T11:38:26;99880.50;;;29.38;21.60
37450;BME280;23309;52.582;13.406;2022-09-16T11:41:02;99869.22;;;29.45;21.61
37450;BME280;23309;52.582;13.406;2022-09-16T11:43:55;99876.06;;;29.62;21.73
37450;BME280;23309;52.582;13.406;2022-09-16T11:46:33;99876.94;;;29.58;21.63
37450;BME280;23309;52.582;13.406;2022-09-16T11:49:26;99874.09;;;29.83;21.07
37450;BME280;23309;52.582;13.406;2022-09-16T11:52:09;99873.63;;;29.46;21.08
37450;BME280;23309;52.582;13.406;2022-09-16T11:55:05;99865.69;;;29.29;20.95
37450;BME280;23309;52.582;13.406;2022-09-16T11:57:40;99866.22;;;28.96;21.87
37450;BME280;23309;52.582;13.406;2022-09-16T12:00:12;99871.97;;;28.70;21.91
37450;BME280;23309;52.582;13.406;2022-09-16T12:02:45;99867.06;;;28.82;22.26
37450;BME280;23309;52.582;13.406;2022-09-16T12:05:20;99854.66;;;28.94;21.78
37450;BME280;23309;52.582;13.406;2022-09-16T12:07:55;99854.13;;;29.37;22.05
37450;BME280;23309;52.582;13.406;2022-09-16T12:10:27;99858.03;;;30.00;21.52
37450;BME280;23309;52.582;13.406;2022-09-16T12:13:03;99851.00;;;30.37;20.72
37450;BME280;23309;52.582;13.406;2022-09-16T12:15:36;99853.81;;;30.66;19.63
37450;BME280;23309;52.582;13.406;2022-09-16T12:18:11;99856.50;;;30.81;19.17
37450;BME280;23309;52.582;13.406;2022-09-16T12:20:44;99831.88;;;30.89;19.43
37450;BME280;23309;52.582;13.406;2022-09-16T12:23:16;99843.78;;;30.85;18.73
37450;BME280;23309;52.582;13.406;2022-09-16T12:25:59;99828.53;;;30.92;19.46
37450;BME280;23309;52.582;13.406;2022-09-16T12:28:31;99830.16;;;31.27;19.46
37450;BME280;23309;52.582;13.406;2022-09-16T12:31:07;99816.13;;;31.23;18.27
37450;BME280;23309;52.582;13.406;2022-09-16T12:33:43;99815.31;;;31.18;17.58
37450;BME280;23309;52.582;13.406;2022-09-16T12:36:17;99818.75;;;31.05;18.13
37450;BME280;23309;52.582;13.406;2022-09-16T12:38:45;99816.50;;;31.12;17.28
37450;BME280;23309;52.582;13.406;2022-09-16T12:41:48;99822.16;;;30.97;17.23
37450;BME280;23309;52.582;13.406;2022-09-16T12:44:44;99813.66;;;30.55;18.00
37450;BME280;23309;52.582;13.406;2022-09-16T12:47:45;99814.72;;;30.20;18.21
37450;BME280;23309;52.582;13.406;2022-09-16T12:50:41;99818.31;;;30.11;18.97
37450;BME280;23309;52.582;13.406;2022-09-16T12:54:07;99816.22;;;29.93;19.26
37450;BME280;23309;52.582;13.406;2022-09-16T12:57:08;99811.75;;;30.02;19.85
37450;BME280;23309;52.582;13.406;2022-09-16T13:02:40;99806.56;;;30.00;18.90
37450;BME280;23309;52.582;13.406;2022-09-16T13:05:17;99808.13;;;30.16;18.97
37450;BME280;23309;52.582;13.406;2022-09-16T13:07:51;99810.81;;;30.26;19.01
37450;BME280;23309;52.582;13.406;2022-09-16T13:10:20;99800.84;;;30.35;19.04
37450;BME280;23309;52.582;13.406;2022-09-16T13:12:57;99806.91;;;30.37;18.78
37450;BME280;23309;52.582;13.406;2022-09-16T13:15:27;99806.47;;;30.20;19.30
37450;BME280;23309;52.582;13.406;2022-09-16T13:17:58;99802.63;;;30.11;19.23
37450;BME280;23309;52.582;13.406;2022-09-16T13:20:36;99793.56;;;30.16;19.56
37450;BME280;23309;52.582;13.406;2022-09-16T13:23:10;99786.25;;;30.35;20.02
37450;BME280;23309;52.582;13.406;2022-09-16T13:25:46;99783.72;;;30.77;18.73
37450;BME280;23309;52.582;13.406;2022-09-16T13:28:35;99796.06;;;30.84;18.60
37450;BME280;23309;52.582;13.406;2022-09-16T13:31:19;99790.41;;;30.66;18.76
37450;BME280;23309;52.582;13.406;2022-09-16T13:34:09;99776.25;;;30.44;18.03